createdAt,value
2018-11-04T00:00:44.283Z,5.22
2018-11-04T00:01:44.313Z,5.11
2018-11-04T00:02:44.188Z,5.13
2018-11-04T00:03:44.115Z,5.16
2018-11-04T00:04:44.052Z,5.11
2018-11-04T00:05:43.998Z,5.13
2018-11-04T00:06:43.975Z,5.03
2018-11-04T00:07:43.903Z,5.16
2018-11-04T00:08:43.832Z,5.06
2018-11-04T00:09:43.828Z,5.07
2018-11-04T00:10:43.719Z,4.99
2018-11-04T00:11:43.703Z,5.04
2018-11-04T00:12:43.629Z,5.04
2018-11-04T00:13:43.593Z,4.89
2018-11-04T00:14:43.513Z,4.98
2018-11-04T00:15:43.467Z,4.88
2018-11-04T00:16:43.424Z,4.93
2018-11-04T00:17:43.335Z,4.95
2018-11-04T00:18:43.300Z,4.92
2018-11-04T00:19:43.253Z,4.86
2018-11-04T00:20:43.190Z,4.88
2018-11-04T00:21:43.149Z,4.85
2018-11-04T00:22:43.061Z,4.76
2018-11-04T00:23:43.020Z,4.80
2018-11-04T00:24:42.958Z,4.85
2018-11-04T00:25:42.899Z,4.85
2018-11-04T00:26:42.913Z,4.85
2018-11-04T00:27:42.786Z,4.86
2018-11-04T00:28:42.734Z,4.85
2018-11-04T00:29:42.747Z,4.80
2018-11-04T00:30:42.634Z,4.83
2018-11-04T00:31:42.597Z,4.74
2018-11-04T00:32:42.521Z,4.74
2018-11-04T00:33:42.461Z,4.77
2018-11-04T00:34:42.468Z,4.73
2018-11-04T00:35:42.345Z,4.67
2018-11-04T00:36:42.330Z,4.67
2018-11-04T00:37:42.245Z,4.66
2018-11-04T00:38:42.190Z,4.71
2018-11-04T00:39:42.132Z,4.59
2018-11-04T00:40:42.071Z,4.53
2018-11-04T00:41:42.058Z,4.45
2018-11-04T00:42:41.980Z,4.53
2018-11-04T00:43:41.918Z,4.48
2018-11-04T00:44:41.878Z,4.46
2018-11-04T00:45:41.807Z,4.55
2018-11-04T00:46:41.781Z,4.48
2018-11-04T00:47:41.700Z,4.48
2018-11-04T00:48:41.634Z,4.43
2018-11-04T00:49:41.601Z,4.34
2018-11-04T00:50:41.535Z,4.38
2018-11-04T00:51:41.498Z,4.38
2018-11-04T00:52:41.437Z,4.34
2018-11-04T00:53:41.375Z,4.35
2018-11-04T00:54:41.299Z,4.43
2018-11-04T00:55:41.275Z,4.38
2018-11-04T00:56:41.249Z,4.37
2018-11-04T00:57:41.174Z,4.37
2018-11-04T00:58:41.093Z,4.31
2018-11-04T00:59:41.047Z,4.31
2018-11-04T01:00:40.996Z,4.34
2018-11-04T01:01:40.967Z,4.28
2018-11-04T01:02:40.910Z,4.20
2018-11-04T01:03:40.824Z,4.31
2018-11-04T01:04:40.758Z,4.27
2018-11-04T01:05:40.695Z,4.34
2018-11-04T01:06:40.710Z,4.23
2018-11-04T01:07:40.592Z,4.27
2018-11-04T01:08:40.544Z,4.22
2018-11-04T01:09:40.495Z,4.19
2018-11-04T01:10:40.430Z,4.22
2018-11-04T01:11:40.409Z,4.23
2018-11-04T01:12:40.338Z,4.19
2018-11-04T01:13:40.263Z,4.23
2018-11-04T01:14:40.212Z,4.20
2018-11-04T01:15:40.154Z,4.22
2018-11-04T01:16:40.149Z,4.27
2018-11-04T01:17:40.061Z,4.27
2018-11-04T01:18:39.980Z,4.19
2018-11-04T01:19:39.959Z,4.19
2018-11-04T01:20:39.964Z,4.20
2018-11-04T01:21:39.876Z,4.26
2018-11-04T01:22:39.810Z,4.23
2018-11-04T01:23:39.726Z,4.27
2018-11-04T01:24:39.649Z,4.20
2018-11-04T01:25:39.616Z,4.19
2018-11-04T01:26:39.529Z,4.19
2018-11-04T01:27:39.540Z,4.22
2018-11-04T01:28:39.477Z,4.26
2018-11-04T01:29:39.368Z,4.27
2018-11-04T01:30:39.347Z,4.20
2018-11-04T01:31:39.287Z,4.19
2018-11-04T01:32:39.249Z,4.23
2018-11-04T01:33:39.166Z,4.30
2018-11-04T01:34:39.117Z,4.18
2018-11-04T01:35:39.040Z,4.23
2018-11-04T01:36:39.090Z,4.18
2018-11-04T01:37:38.967Z,4.20
2018-11-04T01:38:38.862Z,4.10
2018-11-04T01:39:38.895Z,4.15
2018-11-04T01:40:38.750Z,4.22
2018-11-04T01:41:38.727Z,4.20
2018-11-04T01:42:38.705Z,4.23
2018-11-04T01:43:38.615Z,4.28
2018-11-04T01:44:38.540Z,4.22
2018-11-04T01:45:38.475Z,4.23
2018-11-04T01:46:38.446Z,4.19
2018-11-04T01:47:38.418Z,4.16
2018-11-04T01:48:38.333Z,4.19
2018-11-04T01:49:38.276Z,4.22
2018-11-04T01:50:38.213Z,4.28
2018-11-04T01:51:38.153Z,4.22
2018-11-04T01:52:38.171Z,4.19
2018-11-04T01:53:38.038Z,4.34
2018-11-04T01:54:38.086Z,4.19
2018-11-04T01:55:37.940Z,4.33
2018-11-04T01:56:37.875Z,4.34
2018-11-04T01:57:37.846Z,4.28
2018-11-04T01:58:37.781Z,4.35
2018-11-04T01:59:37.742Z,4.34
2018-11-04T02:00:37.671Z,4.34
2018-11-04T02:01:37.605Z,4.34
2018-11-04T02:02:37.614Z,4.19
2018-11-04T02:03:37.496Z,4.22
2018-11-04T02:04:37.436Z,4.23
2018-11-04T02:05:37.383Z,4.23
2018-11-04T02:06:37.330Z,4.23
2018-11-04T02:07:37.315Z,4.22
2018-11-04T02:08:37.236Z,4.31
2018-11-04T02:09:37.156Z,4.30
2018-11-04T02:10:37.151Z,4.26
2018-11-04T02:11:37.074Z,4.19
2018-11-04T02:12:37.061Z,4.30
2018-11-04T02:13:36.983Z,4.20
2018-11-04T02:14:36.871Z,4.26
2018-11-04T02:15:36.825Z,4.22
2018-11-04T02:16:36.770Z,4.13
2018-11-04T02:17:36.750Z,4.16
2018-11-04T02:18:36.652Z,4.12
2018-11-04T02:19:36.615Z,4.20
2018-11-04T02:20:36.539Z,4.26
2018-11-04T02:21:36.483Z,4.23
2018-11-04T02:22:36.473Z,4.16
2018-11-04T02:23:36.373Z,4.20
2018-11-04T02:24:36.333Z,4.15
2018-11-04T02:25:36.266Z,4.28
2018-11-04T02:26:36.208Z,4.20
2018-11-04T02:27:36.230Z,4.27
2018-11-04T02:28:36.094Z,4.22
2018-11-04T02:29:36.041Z,4.28
2018-11-04T02:30:35.993Z,4.31
2018-11-04T02:31:35.938Z,4.31
2018-11-04T02:32:35.915Z,4.33
2018-11-04T02:33:35.827Z,4.30
2018-11-04T02:34:35.792Z,4.28
2018-11-04T02:35:35.727Z,4.33
2018-11-04T02:36:36.100Z,4.31
2018-11-04T02:37:35.645Z,4.31
2018-11-04T02:38:35.554Z,4.35
2018-11-04T02:39:35.499Z,4.31
2018-11-04T02:40:35.437Z,4.34
2018-11-04T02:41:35.384Z,4.37
2018-11-04T02:42:35.343Z,4.31
2018-11-04T02:43:35.260Z,4.35
2018-11-04T02:44:35.217Z,4.48
2018-11-04T02:45:35.152Z,4.37
2018-11-04T02:46:35.092Z,4.40
2018-11-04T02:47:35.098Z,4.49
2018-11-04T02:48:35.002Z,4.52
2018-11-04T02:49:34.943Z,4.55
2018-11-04T02:50:34.904Z,4.52
2018-11-04T02:51:34.833Z,4.63
2018-11-04T02:52:34.772Z,4.52
2018-11-04T02:53:34.746Z,4.56
2018-11-04T02:54:34.659Z,4.52
2018-11-04T02:55:34.600Z,4.51
2018-11-04T02:56:34.543Z,4.49
2018-11-04T02:57:34.488Z,4.53
2018-11-04T02:58:34.456Z,4.51
2018-11-04T02:59:34.418Z,4.61
2018-11-04T03:00:34.325Z,4.55
2018-11-04T03:01:34.278Z,4.55
2018-11-04T03:02:34.208Z,4.53
2018-11-04T03:03:34.187Z,4.55
2018-11-04T03:04:34.103Z,4.52
2018-11-04T03:05:34.084Z,4.55
2018-11-04T03:06:34.004Z,4.52
2018-11-04T03:07:33.947Z,4.56
2018-11-04T03:08:33.921Z,4.52
2018-11-04T03:09:33.837Z,4.48
2018-11-04T03:10:33.769Z,4.53
2018-11-04T03:11:33.714Z,4.48
2018-11-04T03:12:33.662Z,4.49
2018-11-04T03:13:33.625Z,4.53
2018-11-04T03:14:33.549Z,4.33
2018-11-04T03:15:33.488Z,4.46
2018-11-04T03:16:33.431Z,4.40
2018-11-04T03:17:33.392Z,4.46
2018-11-04T03:18:33.357Z,4.33
2018-11-04T03:19:33.263Z,4.38
2018-11-04T03:20:33.216Z,4.46
2018-11-04T03:21:33.157Z,4.46
2018-11-04T03:22:33.101Z,4.48
2018-11-04T03:23:33.087Z,4.31
2018-11-04T03:24:33.050Z,4.34
2018-11-04T03:25:32.953Z,4.41
2018-11-04T03:26:32.907Z,4.43
2018-11-04T03:27:32.834Z,4.45
2018-11-04T03:28:32.796Z,4.41
2018-11-04T03:29:32.755Z,4.46
2018-11-04T03:30:32.667Z,4.31
2018-11-04T03:31:32.616Z,4.49
2018-11-04T03:32:32.587Z,4.49
2018-11-04T03:33:32.520Z,4.52
2018-11-04T03:34:32.446Z,4.51
2018-11-04T03:35:32.380Z,4.51
2018-11-04T03:36:32.332Z,4.49
2018-11-04T03:37:32.278Z,4.52
2018-11-04T03:38:32.246Z,4.52
2018-11-04T03:39:32.171Z,4.46
2018-11-04T03:40:32.118Z,4.53
2018-11-04T03:41:32.065Z,4.52
2018-11-04T03:42:32.003Z,4.59
2018-11-04T03:43:32.003Z,4.59
2018-11-04T03:44:31.903Z,4.61
2018-11-04T03:45:31.840Z,4.55
2018-11-04T03:46:31.780Z,4.64
2018-11-04T03:47:31.721Z,4.58
2018-11-04T03:48:31.708Z,4.66
2018-11-04T03:49:31.613Z,4.64
2018-11-04T03:50:31.566Z,4.74
2018-11-04T03:51:31.501Z,4.85
2018-11-04T03:52:31.448Z,4.86
2018-11-04T03:53:31.436Z,4.85
2018-11-04T03:54:31.343Z,4.76
2018-11-04T03:55:31.287Z,4.76
2018-11-04T03:56:31.230Z,4.80
2018-11-04T03:57:31.190Z,4.83
2018-11-04T03:58:31.143Z,4.77
2018-11-04T03:59:31.067Z,4.83
2018-11-04T04:00:31.005Z,4.79
2018-11-04T04:01:30.947Z,4.86
2018-11-04T04:02:30.902Z,4.83
2018-11-04T04:03:30.877Z,4.80
2018-11-04T04:04:30.791Z,4.77
2018-11-04T04:05:30.732Z,4.85
2018-11-04T04:06:30.680Z,4.93
2018-11-04T04:07:30.622Z,4.86
2018-11-04T04:08:30.607Z,4.89
2018-11-04T04:09:30.519Z,4.90
2018-11-04T04:10:30.461Z,4.86
2018-11-04T04:11:30.402Z,4.90
2018-11-04T04:12:30.341Z,4.89
2018-11-04T04:13:30.310Z,4.98
2018-11-04T04:14:30.252Z,4.92
2018-11-04T04:15:30.181Z,5.04
2018-11-04T04:16:30.134Z,4.96
2018-11-04T04:17:30.083Z,5.03
2018-11-04T04:18:30.016Z,4.89
2018-11-04T04:19:29.981Z,4.95
2018-11-04T04:20:29.907Z,4.99
2018-11-04T04:21:29.852Z,5.04
2018-11-04T04:22:29.813Z,4.96
2018-11-04T04:23:29.757Z,4.98
2018-11-04T04:24:29.707Z,5.03
2018-11-04T04:25:29.640Z,4.95
2018-11-04T04:26:29.577Z,5.04
2018-11-04T04:27:29.531Z,4.96
2018-11-04T04:28:29.475Z,5.07
2018-11-04T04:29:29.435Z,4.99
2018-11-04T04:30:29.373Z,5.03
2018-11-04T04:31:29.298Z,5.07
2018-11-04T04:32:29.242Z,5.06
2018-11-04T04:33:29.211Z,5.04
2018-11-04T04:34:29.172Z,5.06
2018-11-04T04:35:29.079Z,4.99
2018-11-04T04:36:29.038Z,5.03
2018-11-04T04:37:28.978Z,5.07
2018-11-04T04:38:28.918Z,5.04
2018-11-04T04:39:28.887Z,4.96
2018-11-04T04:40:28.819Z,5.03
2018-11-04T04:41:28.771Z,5.07
2018-11-04T04:42:28.708Z,5.07
2018-11-04T04:43:28.666Z,5.04
2018-11-04T04:44:28.623Z,5.04
2018-11-04T04:45:28.536Z,5.04
2018-11-04T04:46:28.473Z,5.11
2018-11-04T04:47:28.421Z,5.08
2018-11-04T04:48:28.386Z,5.10
2018-11-04T04:49:28.352Z,5.08
2018-11-04T04:50:28.267Z,5.04
2018-11-04T04:51:28.208Z,5.04
2018-11-04T04:52:28.158Z,5.03
2018-11-04T04:53:28.103Z,5.04
2018-11-04T04:54:28.098Z,5.04
2018-11-04T04:55:27.992Z,4.98
2018-11-04T04:56:27.929Z,5.03
2018-11-04T04:57:27.884Z,5.07
2018-11-04T04:58:27.825Z,5.03
2018-11-04T04:59:27.786Z,5.03
2018-11-04T05:00:27.708Z,5.01
2018-11-04T05:01:27.708Z,5.03
2018-11-04T05:02:27.605Z,5.03
2018-11-04T05:03:27.557Z,5.04
2018-11-04T05:04:27.515Z,5.10
2018-11-04T05:05:27.450Z,5.14
2018-11-04T05:06:27.374Z,5.13
2018-11-04T05:07:27.321Z,5.11
2018-11-04T05:08:27.298Z,5.14
2018-11-04T05:09:27.233Z,5.24
2018-11-04T05:10:27.174Z,5.16
2018-11-04T05:11:27.101Z,5.14
2018-11-04T05:12:27.064Z,5.17
2018-11-04T05:13:27.014Z,5.19
2018-11-04T05:14:26.969Z,5.13
2018-11-04T05:15:26.899Z,5.24
2018-11-04T05:16:26.840Z,5.28
2018-11-04T05:17:26.794Z,5.25
2018-11-04T05:18:26.721Z,5.26
2018-11-04T05:19:26.729Z,5.25
2018-11-04T05:20:26.615Z,5.32
2018-11-04T05:21:26.557Z,5.31
2018-11-04T05:22:26.498Z,5.31
2018-11-04T05:23:26.456Z,5.35
2018-11-04T05:24:26.443Z,5.39
2018-11-04T05:25:26.367Z,5.42
2018-11-04T05:26:26.348Z,5.35
2018-11-04T05:27:26.228Z,5.47
2018-11-04T05:28:26.172Z,5.40
2018-11-04T05:29:26.138Z,5.47
2018-11-04T05:30:26.081Z,5.44
2018-11-04T05:31:26.019Z,5.51
2018-11-04T05:32:25.957Z,5.57
2018-11-04T05:33:25.902Z,5.54
2018-11-04T05:34:25.919Z,5.57
2018-11-04T05:35:25.798Z,5.62
2018-11-04T05:36:25.745Z,5.54
2018-11-04T05:37:25.685Z,5.65
2018-11-04T05:38:25.647Z,5.71
2018-11-04T05:39:25.573Z,5.72
2018-11-04T05:40:25.566Z,5.72
2018-11-04T05:41:25.478Z,5.80
2018-11-04T05:42:25.416Z,5.87
2018-11-04T05:43:25.356Z,5.90
2018-11-04T05:44:25.352Z,5.89
2018-11-04T05:45:25.273Z,5.92
2018-11-04T05:46:25.197Z,5.89
2018-11-04T05:47:25.132Z,5.98
2018-11-04T05:48:25.088Z,6.01
2018-11-04T05:49:25.028Z,6.04
2018-11-04T05:50:25.001Z,6.04
2018-11-04T05:51:24.927Z,6.05
2018-11-04T05:52:24.864Z,6.07
2018-11-04T05:53:24.816Z,6.16
2018-11-04T05:54:24.781Z,6.19
2018-11-04T05:55:24.735Z,6.21
2018-11-04T05:56:24.646Z,6.21
2018-11-04T05:57:24.597Z,6.22
2018-11-04T05:58:24.564Z,6.29
2018-11-04T05:59:24.508Z,6.27
2018-11-04T06:00:24.462Z,6.30
2018-11-04T06:01:24.388Z,6.38
2018-11-04T06:02:24.325Z,6.27
2018-11-04T06:03:24.266Z,6.34
2018-11-04T06:04:24.218Z,6.42
2018-11-04T06:05:24.197Z,6.48
2018-11-04T06:06:24.111Z,6.52
2018-11-04T06:07:24.055Z,6.52
2018-11-04T06:08:24.000Z,6.60
2018-11-04T06:09:23.944Z,6.56
2018-11-04T06:10:23.949Z,6.62
2018-11-04T06:11:23.845Z,6.66
2018-11-04T06:12:23.785Z,6.62
2018-11-04T06:13:23.726Z,6.65
2018-11-04T06:14:23.699Z,6.67
2018-11-04T06:15:23.657Z,6.65
2018-11-04T06:16:23.582Z,6.60
2018-11-04T06:17:23.517Z,6.74
2018-11-04T06:18:23.469Z,6.80
2018-11-04T06:19:23.484Z,6.80
2018-11-04T06:20:23.387Z,6.80
2018-11-04T06:21:23.300Z,6.88
2018-11-04T06:22:23.242Z,6.93
2018-11-04T06:23:23.201Z,6.93
2018-11-04T06:24:23.135Z,6.95
2018-11-04T06:25:23.116Z,6.92
2018-11-04T06:26:23.028Z,6.92
2018-11-04T06:27:22.992Z,6.95
2018-11-04T06:28:22.929Z,7.00
2018-11-04T06:29:22.869Z,7.03
2018-11-04T06:30:22.842Z,7.00
2018-11-04T06:31:22.772Z,7.07
2018-11-04T06:32:22.735Z,7.08
2018-11-04T06:33:22.667Z,7.02
2018-11-04T06:34:22.648Z,7.03
2018-11-04T06:35:22.585Z,7.21
2018-11-04T06:36:22.517Z,7.18
2018-11-04T06:37:22.451Z,7.17
2018-11-04T06:38:22.392Z,7.18
2018-11-04T06:39:22.337Z,7.25
2018-11-04T06:40:22.339Z,7.20
2018-11-04T06:41:22.261Z,7.21
2018-11-04T06:42:22.185Z,7.21
2018-11-04T06:43:22.140Z,7.25
2018-11-04T06:44:22.075Z,7.25
2018-11-04T06:45:22.033Z,7.32
2018-11-04T06:46:21.963Z,7.31
2018-11-04T06:47:21.957Z,7.26
2018-11-04T06:48:21.861Z,7.29
2018-11-04T06:49:21.807Z,7.29
2018-11-04T06:50:21.806Z,7.39
2018-11-04T06:51:21.696Z,7.41
2018-11-04T06:52:21.637Z,7.42
2018-11-04T06:53:21.594Z,7.42
2018-11-04T06:54:21.542Z,7.46
2018-11-04T06:55:21.507Z,7.41
2018-11-04T06:56:21.428Z,7.47
2018-11-04T06:57:21.375Z,7.46
2018-11-04T06:58:21.336Z,7.53
2018-11-04T06:59:21.271Z,7.44
2018-11-04T07:00:21.273Z,7.54
2018-11-04T07:01:21.158Z,7.56
2018-11-04T07:02:21.123Z,7.47
2018-11-04T07:03:21.064Z,7.59
2018-11-04T07:04:21.007Z,7.57
2018-11-04T07:05:20.946Z,7.56
2018-11-04T07:06:20.928Z,7.57
2018-11-04T07:07:20.853Z,7.59
2018-11-04T07:08:20.793Z,7.57
2018-11-04T07:09:20.743Z,7.62
2018-11-04T07:10:20.684Z,7.62
2018-11-04T07:11:20.660Z,7.69
2018-11-04T07:12:20.584Z,7.73
2018-11-04T07:13:20.529Z,7.70
2018-11-04T07:14:20.480Z,7.73
2018-11-04T07:15:20.420Z,7.70
2018-11-04T07:16:20.396Z,7.76
2018-11-04T07:17:20.341Z,7.78
2018-11-04T07:18:20.256Z,7.72
2018-11-04T07:19:20.205Z,7.84
2018-11-04T07:20:20.168Z,7.87
2018-11-04T07:21:20.139Z,7.90
2018-11-04T07:22:20.046Z,7.80
2018-11-04T07:23:20.007Z,7.86
2018-11-04T07:24:19.939Z,7.93
2018-11-04T07:25:19.889Z,7.93
2018-11-04T07:26:19.862Z,7.98
2018-11-04T07:27:19.788Z,7.98
2018-11-04T07:28:19.737Z,8.05
2018-11-04T07:29:19.695Z,8.06
2018-11-04T07:30:19.618Z,8.02
2018-11-04T07:31:19.604Z,8.08
2018-11-04T07:32:19.516Z,8.05
2018-11-04T07:33:19.470Z,8.09
2018-11-04T07:34:19.412Z,8.11
2018-11-04T07:35:19.357Z,8.12
2018-11-04T07:36:19.332Z,8.09
2018-11-04T07:37:19.252Z,8.13
2018-11-04T07:38:19.211Z,8.20
2018-11-04T07:39:19.173Z,8.23
2018-11-04T07:40:19.112Z,8.24
2018-11-04T07:41:19.094Z,8.29
2018-11-04T07:42:18.989Z,8.29
2018-11-04T07:43:18.944Z,8.29
2018-11-04T07:44:18.965Z,8.27
2018-11-04T07:45:18.864Z,8.31
2018-11-04T07:46:18.832Z,8.26
2018-11-04T07:47:18.785Z,8.30
2018-11-04T07:48:18.675Z,8.29
2018-11-04T07:49:18.633Z,8.33
2018-11-04T07:50:18.568Z,8.36
2018-11-04T07:51:18.613Z,8.33
2018-11-04T07:52:18.512Z,8.42
2018-11-04T07:53:18.421Z,8.44
2018-11-04T07:54:18.365Z,8.38
2018-11-04T07:55:18.321Z,8.42
2018-11-04T07:56:18.321Z,8.45
2018-11-04T07:57:18.216Z,8.44
2018-11-04T07:58:18.175Z,8.44
2018-11-04T07:59:18.102Z,8.42
2018-11-04T08:00:18.048Z,8.45
2018-11-04T08:01:18.055Z,8.51
2018-11-04T08:02:17.944Z,8.44
2018-11-04T08:03:17.912Z,8.48
2018-11-04T08:04:17.907Z,8.54
2018-11-04T08:05:17.801Z,8.52
2018-11-04T08:06:17.771Z,8.60
2018-11-04T08:07:17.691Z,8.57
2018-11-04T08:08:17.650Z,8.55
2018-11-04T08:09:17.603Z,8.59
2018-11-04T08:10:17.528Z,8.64
2018-11-04T08:11:17.542Z,8.70
2018-11-04T08:12:17.469Z,8.67
2018-11-04T08:13:17.399Z,8.64
2018-11-04T08:14:17.346Z,8.63
2018-11-04T08:15:17.289Z,8.66
2018-11-04T08:16:17.261Z,8.60
2018-11-04T08:17:17.166Z,8.67
2018-11-04T08:18:17.107Z,8.75
2018-11-04T08:19:17.067Z,8.72
2018-11-04T08:20:17.005Z,8.77
2018-11-04T08:21:17.075Z,8.80
2018-11-04T08:22:16.894Z,8.72
2018-11-04T08:23:16.888Z,8.69
2018-11-04T08:24:16.988Z,8.78
2018-11-04T08:25:16.882Z,8.73
2018-11-04T08:26:16.687Z,8.78
2018-11-04T08:27:16.761Z,8.81
2018-11-04T08:28:16.599Z,8.77
2018-11-04T08:29:16.645Z,8.88
2018-11-04T08:30:16.476Z,8.82
2018-11-04T08:31:16.458Z,8.85
2018-11-04T08:32:16.439Z,8.87
2018-11-04T08:33:16.435Z,8.88
2018-11-04T08:34:16.287Z,8.95
2018-11-04T08:35:16.317Z,8.93
2018-11-04T08:36:16.244Z,8.99
2018-11-04T08:37:16.173Z,8.96
2018-11-04T08:38:16.073Z,9.06
2018-11-04T08:39:16.082Z,9.08
2018-11-04T08:40:16.035Z,9.00
2018-11-04T08:41:15.910Z,9.03
2018-11-04T08:42:15.938Z,9.03
2018-11-04T08:43:15.809Z,9.18
2018-11-04T08:44:15.752Z,9.03
2018-11-04T08:45:15.709Z,9.11
2018-11-04T08:46:15.656Z,9.15
2018-11-04T08:47:15.654Z,9.19
2018-11-04T08:48:15.549Z,9.08
2018-11-04T08:49:15.511Z,9.19
2018-11-04T08:50:15.451Z,9.15
2018-11-04T08:51:15.393Z,9.28
2018-11-04T08:52:15.368Z,9.29
2018-11-04T08:53:15.348Z,9.28
2018-11-04T08:54:15.249Z,9.33
2018-11-04T08:55:15.261Z,9.37
2018-11-04T08:56:15.123Z,9.36
2018-11-04T08:57:15.156Z,9.44
2018-11-04T08:58:15.033Z,9.44
2018-11-04T08:59:14.990Z,9.46
2018-11-04T09:00:15.036Z,9.42
2018-11-04T09:01:15.027Z,9.49
2018-11-04T09:02:14.909Z,9.51
2018-11-04T09:03:14.781Z,9.49
2018-11-04T09:04:14.811Z,9.51
2018-11-04T09:05:14.680Z,9.54
2018-11-04T09:06:14.682Z,9.55
2018-11-04T09:07:14.587Z,9.61
2018-11-04T09:08:14.554Z,9.57
2018-11-04T09:09:14.499Z,9.54
2018-11-04T09:10:14.498Z,9.72
2018-11-04T09:11:14.345Z,9.62
2018-11-04T09:12:14.343Z,9.65
2018-11-04T09:13:14.383Z,9.75
2018-11-04T09:14:14.294Z,9.69
2018-11-04T09:15:14.182Z,9.62
2018-11-04T09:16:14.133Z,9.82
2018-11-04T09:17:14.103Z,9.79
2018-11-04T09:18:14.112Z,9.86
2018-11-04T09:19:14.004Z,9.80
2018-11-04T09:20:13.895Z,9.82
2018-11-04T09:21:13.899Z,9.95
2018-11-04T09:22:13.861Z,9.85
2018-11-04T09:23:13.793Z,9.93
2018-11-04T09:24:13.708Z,9.90
2018-11-04T09:25:13.637Z,9.94
2018-11-04T09:26:13.600Z,9.97
2018-11-04T09:27:13.590Z,10.02
2018-11-04T09:28:13.476Z,9.98
2018-11-04T09:29:13.498Z,10.10
2018-11-04T09:30:13.434Z,10.08
2018-11-04T09:31:13.350Z,10.09
2018-11-04T09:32:13.364Z,10.18
2018-11-04T09:33:13.259Z,10.16
2018-11-04T09:34:13.205Z,10.12
2018-11-04T09:35:13.183Z,10.13
2018-11-04T09:36:13.199Z,10.23
2018-11-04T09:37:13.076Z,10.20
2018-11-04T09:38:12.957Z,10.23
2018-11-04T09:39:12.967Z,10.27
2018-11-04T09:40:12.860Z,10.30
2018-11-04T09:41:12.798Z,10.22
2018-11-04T09:42:12.785Z,10.30
2018-11-04T09:43:12.701Z,10.31
2018-11-04T09:44:12.645Z,10.33
2018-11-04T09:45:12.608Z,10.37
2018-11-04T09:46:12.571Z,10.35
2018-11-04T09:47:12.522Z,10.43
2018-11-04T09:48:12.444Z,10.41
2018-11-04T09:49:12.413Z,10.43
2018-11-04T09:50:12.349Z,10.52
2018-11-04T09:51:12.324Z,10.45
2018-11-04T09:52:12.288Z,10.53
2018-11-04T09:53:12.184Z,10.54
2018-11-04T09:54:12.152Z,10.56
2018-11-04T09:55:12.102Z,10.56
2018-11-04T09:56:12.049Z,10.56
2018-11-04T09:57:12.006Z,10.70
2018-11-04T09:58:11.964Z,10.68
2018-11-04T09:59:11.890Z,10.65
2018-11-04T10:00:11.821Z,10.72
2018-11-04T10:01:11.780Z,10.72
2018-11-04T10:02:11.745Z,10.67
2018-11-04T10:03:11.697Z,10.68
2018-11-04T10:04:11.640Z,10.65
2018-11-04T10:05:11.587Z,10.82
2018-11-04T10:06:11.533Z,10.72
2018-11-04T10:07:11.542Z,10.82
2018-11-04T10:08:11.442Z,10.89
2018-11-04T10:09:11.360Z,10.86
2018-11-04T10:10:11.312Z,10.83
2018-11-04T10:11:11.311Z,10.96
2018-11-04T10:12:11.242Z,10.90
2018-11-04T10:13:11.212Z,11.00
2018-11-04T10:14:11.110Z,11.01
2018-11-04T10:15:11.093Z,11.03
2018-11-04T10:16:11.035Z,11.03
2018-11-04T10:17:10.964Z,11.01
2018-11-04T10:18:10.922Z,11.12
2018-11-04T10:19:11.045Z,11.10
2018-11-04T10:20:10.942Z,11.11
2018-11-04T10:21:11.237Z,11.15
2018-11-04T10:22:10.756Z,11.15
2018-11-04T10:23:10.683Z,11.20
2018-11-04T10:24:10.664Z,11.17
2018-11-04T10:25:10.551Z,11.14
2018-11-04T10:26:10.510Z,11.20
2018-11-04T10:27:10.465Z,11.15
2018-11-04T10:28:10.444Z,11.28
2018-11-04T10:29:10.342Z,11.30
2018-11-04T10:30:10.334Z,11.28
2018-11-04T10:31:10.272Z,11.23
2018-11-04T10:32:10.191Z,11.25
2018-11-04T10:33:10.217Z,11.26
2018-11-04T10:34:10.097Z,11.22
2018-11-04T10:35:10.047Z,11.29
2018-11-04T10:36:10.026Z,11.25
2018-11-04T10:37:10.007Z,11.26
2018-11-04T10:38:09.932Z,11.30
2018-11-04T10:39:09.838Z,11.26
2018-11-04T10:40:09.801Z,11.22
2018-11-04T10:41:09.738Z,11.26
2018-11-04T10:42:09.735Z,11.26
2018-11-04T10:43:09.678Z,11.26
2018-11-04T10:44:09.612Z,11.26
2018-11-04T10:45:09.532Z,11.26
2018-11-04T10:46:09.494Z,11.37
2018-11-04T10:47:10.311Z,11.29
2018-11-04T10:48:09.422Z,11.32
2018-11-04T10:49:09.415Z,11.32
2018-11-04T10:50:09.315Z,11.44
2018-11-04T10:51:09.247Z,11.37
2018-11-04T10:52:09.182Z,11.44
2018-11-04T10:53:09.190Z,11.43
2018-11-04T10:54:09.092Z,11.41
2018-11-04T10:55:09.025Z,11.51
2018-11-04T10:56:08.973Z,11.50
2018-11-04T10:57:08.941Z,11.46
2018-11-04T10:58:08.932Z,11.50
2018-11-04T10:59:08.831Z,11.54
2018-11-04T11:00:08.790Z,11.51
2018-11-04T11:01:08.720Z,11.48
2018-11-04T11:02:08.696Z,11.50
2018-11-04T11:03:08.654Z,11.54
2018-11-04T11:04:08.583Z,11.51
2018-11-04T11:05:08.523Z,11.53
2018-11-04T11:06:08.471Z,11.54
2018-11-04T11:07:08.433Z,11.54
2018-11-04T11:08:08.405Z,11.63
2018-11-04T11:09:08.346Z,11.54
2018-11-04T11:10:08.271Z,11.59
2018-11-04T11:11:08.307Z,11.62
2018-11-04T11:12:08.176Z,11.61
2018-11-04T11:13:08.163Z,11.66
2018-11-04T11:14:08.065Z,11.58
2018-11-04T11:15:08.015Z,11.61
2018-11-04T11:16:07.974Z,11.63
2018-11-04T11:17:07.929Z,11.69
2018-11-04T11:18:07.865Z,11.69
2018-11-04T11:19:07.846Z,11.74
2018-11-04T11:20:07.769Z,11.72
2018-11-04T11:21:07.732Z,11.68
2018-11-04T11:22:07.664Z,11.80
2018-11-04T11:23:07.731Z,11.79
2018-11-04T11:24:07.588Z,11.80
2018-11-04T11:25:07.513Z,11.76
2018-11-04T11:26:07.463Z,11.83
2018-11-04T11:27:07.415Z,11.84
2018-11-04T11:28:07.383Z,11.81
2018-11-04T11:29:07.356Z,11.90
2018-11-04T11:30:07.348Z,11.87
2018-11-04T11:31:07.254Z,11.87
2018-11-04T11:32:07.191Z,11.87
2018-11-04T11:33:07.103Z,11.83
2018-11-04T11:34:07.089Z,11.83
2018-11-04T11:35:07.004Z,11.83
2018-11-04T11:36:06.954Z,11.90
2018-11-04T11:37:06.961Z,11.96
2018-11-04T11:38:06.969Z,11.91
2018-11-04T11:39:06.864Z,11.88
2018-11-04T11:40:06.755Z,11.95
2018-11-04T11:41:06.709Z,11.91
2018-11-04T11:42:06.719Z,12.02
2018-11-04T11:43:06.606Z,11.97
2018-11-04T11:44:06.721Z,11.99
2018-11-04T11:45:06.512Z,12.00
2018-11-04T11:46:06.485Z,12.00
2018-11-04T11:47:06.405Z,11.99
2018-11-04T11:48:06.355Z,12.06
2018-11-04T11:49:06.340Z,11.99
2018-11-04T11:50:06.469Z,11.97
2018-11-04T11:51:06.377Z,12.05
2018-11-04T11:52:06.185Z,12.07
2018-11-04T11:53:06.114Z,12.05
2018-11-04T11:54:06.104Z,12.07
2018-11-04T11:55:06.350Z,12.05
2018-11-04T11:56:05.950Z,12.03
2018-11-04T11:57:05.939Z,11.96
2018-11-04T11:58:05.983Z,11.99
2018-11-04T11:59:06.058Z,11.95
2018-11-04T12:00:05.755Z,11.97
2018-11-04T12:01:05.695Z,11.96
2018-11-04T12:02:05.690Z,11.88
2018-11-04T12:03:05.600Z,11.91
2018-11-04T12:04:05.697Z,11.95
2018-11-04T12:05:05.497Z,11.95
2018-11-04T12:06:05.453Z,11.96
2018-11-04T12:07:05.423Z,11.96
2018-11-04T12:08:05.354Z,11.99
2018-11-04T12:09:05.343Z,12.00
2018-11-04T12:10:05.257Z,11.99
2018-11-04T12:11:05.202Z,11.95
2018-11-04T12:12:05.165Z,11.99
2018-11-04T12:13:05.111Z,12.06
2018-11-04T12:14:05.069Z,12.06
2018-11-04T12:15:05.022Z,12.10
2018-11-04T12:16:04.968Z,12.05
2018-11-04T12:17:04.902Z,12.02
2018-11-04T12:18:04.856Z,12.10
2018-11-04T12:19:04.833Z,12.07
2018-11-04T12:20:04.744Z,12.10
2018-11-04T12:21:04.717Z,12.10
2018-11-04T12:22:04.667Z,12.09
2018-11-04T12:23:04.590Z,12.13
2018-11-04T12:24:04.590Z,12.14
2018-11-04T12:25:04.499Z,12.17
2018-11-04T12:26:04.483Z,12.18
2018-11-04T12:27:04.406Z,12.07
2018-11-04T12:28:04.343Z,12.07
2018-11-04T12:29:04.353Z,12.10
2018-11-04T12:30:04.260Z,12.05
2018-11-04T12:31:04.201Z,12.09
2018-11-04T12:32:04.154Z,12.13
2018-11-04T12:33:04.102Z,12.13
2018-11-04T12:34:04.061Z,12.07
2018-11-04T12:35:03.996Z,12.06
2018-11-04T12:36:03.953Z,12.05
2018-11-04T12:37:03.892Z,12.09
2018-11-04T12:38:03.841Z,12.09
2018-11-04T12:39:03.833Z,12.06
2018-11-04T12:40:03.749Z,12.00
2018-11-04T12:41:03.691Z,12.06
2018-11-04T12:42:03.642Z,12.00
2018-11-04T12:43:03.601Z,12.10
2018-11-04T12:44:03.542Z,12.09
2018-11-04T12:45:03.516Z,12.09
2018-11-04T12:46:03.459Z,12.14
2018-11-04T12:47:03.388Z,12.21
2018-11-04T12:48:03.344Z,12.24
2018-11-04T12:49:03.300Z,12.25
2018-11-04T12:50:03.277Z,12.35
2018-11-04T12:51:03.199Z,12.25
2018-11-04T12:52:03.163Z,12.25
2018-11-04T12:53:03.098Z,12.30
2018-11-04T12:54:03.038Z,12.20
2018-11-04T12:55:03.010Z,12.36
2018-11-04T12:56:02.937Z,12.39
2018-11-04T12:57:02.897Z,12.35
2018-11-04T12:58:02.847Z,12.33
2018-11-04T12:59:02.793Z,12.39
2018-11-04T13:00:02.756Z,12.43
2018-11-04T13:01:02.695Z,12.42
2018-11-04T13:02:02.836Z,12.40
2018-11-04T13:03:02.585Z,12.35
2018-11-04T13:04:02.529Z,12.35
2018-11-04T13:05:02.521Z,12.35
2018-11-04T13:06:02.431Z,12.45
2018-11-04T13:07:02.388Z,12.45
2018-11-04T13:08:02.344Z,12.38
2018-11-04T13:09:02.294Z,12.42
2018-11-04T13:10:02.307Z,12.42
2018-11-04T13:11:02.202Z,12.42